Time;durP1;ratioP1;P1;durP2;ratioP2;P2;SDS_P1;SDS_P2;PMS_P1;PMS_P2;Temp;Humidity;BMP_temperature;BMP_pressure;BME280_temperature;BME280_humidity;BME280_pressure;Samples;Min_cycle;Max_cycle;Signal;HPM_P1;HPM_P2
2021/12/24 00:00:22;;;;;;;60.40;33.90;;;;;;;-2.26;78.11;99077.31;84672;1330;23856;-72
2021/12/24 00:02:46;;;;;;;56.00;31.70;;;;;;;-2.28;78.32;99068.08;84669;1328;22590;-72
2021/12/24 00:04:54;;;;;;;;;;;;;;;-2.27;78.18;99062.61;84716;1330;25287;-70
2021/12/24 00:07:04;;;;;;;56.20;31.70;;;;;;;-2.28;78.67;99065.35;84570;1333;23953;-70
2021/12/24 00:09:20;;;;;;;54.60;31.00;;;;;;;-2.26;78.74;99059.04;84692;1328;22624;-71
2021/12/24 00:11:30;;;;;;;50.10;29.70;;;;;;;-2.23;78.50;99054.89;84670;1330;24769;-70
2021/12/24 00:13:43;;;;;;;56.30;31.80;;;;;;;-2.21;78.58;99055.75;84680;1330;22553;-69
2021/12/24 00:16:01;;;;;;;51.00;29.80;;;;;;;-2.17;78.97;99054.17;84691;1329;24100;-70
2021/12/24 00:18:22;;;;;;;61.10;32.20;;;;;;;-2.19;78.79;99049.39;84681;1329;22593;-69
2021/12/24 00:21:26;;;;;;;54.60;31.60;;;;;;;-2.19;78.81;99047.02;84669;1332;22682;-70
2021/12/24 00:35:35;;;;;;;64.20;34.80;;;;;;;-2.18;79.11;99024.61;84240;1337;23034;-71
2021/12/24 00:37:49;;;;;;;70.90;37.20;;;;;;;-2.17;79.27;99019.85;84291;1338;23823;-71
2021/12/24 00:40:10;;;;;;;77.40;39.10;;;;;;;-2.16;79.40;99025.47;84335;1335;24370;-74
2021/12/24 00:42:23;;;;;;;71.50;37.60;;;;;;;-2.15;79.27;99013.67;84354;1335;22620;-74
2021/12/24 00:44:33;;;;;;;86.30;41.90;;;;;;;-2.15;79.40;99006.83;84339;1335;24135;-74
2021/12/24 00:46:45;;;;;;;78.90;42.30;;;;;;;-2.14;79.57;99007.33;84352;1336;24256;-72
2021/12/24 00:48:57;;;;;;;78.80;41.20;;;;;;;-2.14;79.46;98998.44;84332;1335;22832;-73
2021/12/24 00:51:20;;;;;;;84.70;39.40;;;;;;;-2.14;79.62;98994.17;83911;1335;1003798;-72
2021/12/24 00:56:00;;;;;;;72.20;37.70;;;;;;;-2.11;79.53;98990.06;84373;1330;22786;-73
2021/12/24 00:58:08;;;;;;;65.10;35.10;;;;;;;-2.08;79.67;98985.40;84345;1335;22628;-73
2021/12/24 01:00:21;;;;;;;72.40;38.40;;;;;;;-2.04;79.64;98976.33;84345;1336;22611;-74
2021/12/24 01:02:31;;;;;;;66.20;34.90;;;;;;;-2.03;79.87;98965.89;84346;1336;22604;-74
2021/12/24 01:04:44;;;;;;;76.10;38.60;;;;;;;-2.06;79.75;98962.84;84570;1329;22590;-73
2021/12/24 01:06:54;;;;;;;70.60;38.50;;;;;;;-2.08;79.79;98953.63;84679;1330;22603;-74
2021/12/24 01:09:07;;;;;;;63.20;35.70;;;;;;;-2.07;79.93;98945.59;83966;1330;1003146;-74
2021/12/24 01:11:16;;;;;;;68.30;33.40;;;;;;;-2.07;79.92;98938.92;84700;1329;22667;-73
2021/12/24 01:13:29;;;;;;;66.60;34.80;;;;;;;-2.05;79.88;98932.42;84669;1329;22614;-72
2021/12/24 01:15:53;;;;;;;68.20;33.40;;;;;;;-2.05;80.07;98920.98;84695;1326;22703;-73
2021/12/24 01:18:09;;;;;;;66.00;31.70;;;;;;;-2.05;79.99;98918.92;82568;1328;1003354;-74
2021/12/24 01:20:25;;;;;;;59.80;33.10;;;;;;;-2.04;80.21;98918.06;84650;1329;22594;-73
2021/12/24 01:23:19;;;;;;;61.10;32.90;;;;;;;-2.01;80.31;98919.73;84687;1329;25463;-74
2021/12/24 01:25:31;;;;;;;59.00;34.20;;;;;;;-1.99;80.24;98913.57;84702;1329;25349;-71
2021/12/24 01:27:59;;;;;;;64.90;34.30;;;;;;;-2.00;80.22;98917.84;84686;1329;23977;-70
2021/12/24 01:37:51;;;;;;;67.40;33.70;;;;;;;-2.01;80.41;98917.52;84684;1328;22729;-71
2021/12/24 01:38:09;;;;;;;54.90;31.30;;;;;;;-2.01;80.45;98896.15;84679;1332;22590;-70
2021/12/24 01:40:25;;;;;;;58.00;33.70;;;;;;;-1.98;80.26;98893.20;84663;1330;22610;-70
2021/12/24 01:42:43;;;;;;;59.80;31.60;;;;;;;-1.97;80.54;98880.55;84662;1330;22627;-70
2021/12/24 01:44:52;;;;;;;58.90;30.90;;;;;;;-1.98;80.55;98881.77;84688;1329;22617;-70
2021/12/24 01:47:03;;;;;;;58.10;32.40;;;;;;;-1.99;80.59;98884.84;84661;1329;22602;-70
2021/12/24 01:49:12;;;;;;;51.70;28.70;;;;;;;-1.99;80.73;98886.21;83966;1330;1003332;-72
2021/12/24 01:51:24;;;;;;;51.90;29.60;;;;;;;-1.98;80.64;98874.06;84706;1326;22618;-74
2021/12/24 01:53:36;;;;;;;47.30;27.70;;;;;;;-1.96;80.50;98855.94;84696;1329;22729;-74
2021/12/24 01:55:48;;;;;;;51.80;28.70;;;;;;;-1.94;80.63;98848.23;83952;1330;1003620;-71
2021/12/24 01:57:58;;;;;;;49.50;28.60;;;;;;;-1.93;80.63;98848.02;84665;1329;22725;-70
2021/12/24 02:00:11;;;;;;;51.40;29.00;;;;;;;-1.91;80.61;98847.69;84684;1330;23964;-69
2021/12/24 02:02:23;;;;;;;49.80;29.70;;;;;;;-1.89;80.72;98836.71;84672;1325;22742;-69
2021/12/24 02:04:33;;;;;;;53.30;29.60;;;;;;;-1.90;80.68;98825.77;84702;1331;25295;-69
2021/12/24 02:06:42;;;;;;;53.50;32.00;;;;;;;-1.91;80.75;98817.09;84671;1330;22664;-70
2021/12/24 02:08:51;;;;;;;55.40;31.80;;;;;;;-1.93;80.69;98816.07;84661;1330;22592;-69
2021/12/24 02:11:00;;;;;;;55.40;30.80;;;;;;;-1.93;80.59;98833.33;84681;1325;22597;-69
2021/12/24 02:13:09;;;;;;;48.90;28.20;;;;;;;-1.92;80.66;98832.30;84665;1331;22839;-69
2021/12/24 02:15:27;;;;;;;45.90;26.20;;;;;;;-1.91;80.93;98828.89;84680;1331;22557;-74
2021/12/24 02:17:56;;;;;;;45.10;27.80;;;;;;;-1.87;81.05;98823.17;84668;1332;24343;-73
2021/12/24 02:30:12;;;;;;;51.40;29.50;;;;;;;-1.84;80.78;98796.14;84707;1330;22605;-70
2021/12/24 02:32:21;;;;;;;46.00;27.80;;;;;;;-1.85;81.09;98790.67;84722;1330;22589;-70
2021/12/24 02:34:34;;;;;;;45.70;26.40;;;;;;;-1.86;80.84;98779.77;84687;1330;24229;-70
2021/12/24 02:36:46;;;;;;;50.60;29.40;;;;;;;-1.85;80.92;98785.03;84679;1329;24182;-71
2021/12/24 02:38:56;;;;;;;44.80;26.50;;;;;;;-1.83;80.71;98789.63;84682;1328;23134;-72
2021/12/24 02:41:09;;;;;;;46.70;28.00;;;;;;;-1.83;80.87;98788.60;84706;1329;24452;-74
2021/12/24 02:43:24;;;;;;;48.20;27.90;;;;;;;-1.83;80.95;98774.58;84694;1328;22609;-74
2021/12/24 02:45:35;;;;;;;48.30;27.60;;;;;;;-1.83;81.05;98776.64;83993;1332;1002894;-73
2021/12/24 02:48:10;;;;;;;47.80;27.40;;;;;;;-1.84;80.99;98765.20;84697;1331;22622;-74
2021/12/24 02:55:19;;;;;;;52.30;30.20;;;;;;;-1.85;80.84;98754.27;84692;1332;25273;-74
2021/12/24 02:57:34;;;;;;;43.60;26.40;;;;;;;-1.84;80.97;98744.17;84688;1328;23043;-74
2021/12/24 02:59:58;;;;;;;47.30;27.00;;;;;;;-1.83;81.05;98740.90;84672;1330;22595;-71
2021/12/24 03:02:08;;;;;;;44.30;27.30;;;;;;;-1.84;81.15;98732.04;84691;1330;22698;-70
2021/12/24 03:04:20;;;;;;;45.60;26.90;;;;;;;-1.83;81.01;98729.98;84575;1331;22722;-70
2021/12/24 03:06:31;;;;;;;47.20;27.80;;;;;;;-1.83;81.30;98719.71;84578;1335;22829;-70
2021/12/24 03:08:43;;;;;;;55.00;31.00;;;;;;;-1.81;81.25;98713.05;84697;1332;22728;-71
2021/12/24 03:10:57;;;;;;;52.30;29.50;;;;;;;-1.79;81.25;98714.72;84016;1324;1003472;-70
2021/12/24 03:13:10;;;;;;;49.60;27.90;;;;;;;-1.81;81.22;98713.89;84655;1330;22615;-69
2021/12/24 03:15:20;;;;;;;44.30;27.00;;;;;;;-1.80;81.32;98715.07;84659;1329;22923;-75
2021/12/24 03:17:30;;;;;;;45.80;26.10;;;;;;;-1.78;81.22;98712.13;84700;1332;24238;-72
2021/12/24 03:19:40;;;;;;;47.20;28.10;;;;;;;-1.75;81.08;98701.66;84691;1331;23149;-73
2021/12/24 03:21:55;;;;;;;43.90;27.50;;;;;;;-1.74;81.25;98691.23;84668;1330;23968;-72
2021/12/24 03:26:36;;;;;;;52.40;29.20;;;;;;;-1.72;81.25;98681.27;84680;1328;24308;-70
2021/12/24 03:28:48;;;;;;;52.60;30.30;;;;;;;-1.73;81.52;98691.89;84673;1330;22725;-72
2021/12/24 03:30:57;;;;;;;48.50;27.60;;;;;;;-1.74;81.41;98690.70;84670;1330;22890;-71
2021/12/24 03:33:09;;;;;;;51.20;29.80;;;;;;;-1.75;81.27;98684.91;84697;1329;22631;-71
2021/12/24 03:35:18;;;;;;;43.60;27.30;;;;;;;-1.76;81.31;98681.84;84665;1331;25340;-73
2021/12/24 03:37:28;;;;;;;48.30;28.70;;;;;;;-1.78;81.25;98673.16;84675;1328;22899;-72
2021/12/24 03:39:41;;;;;;;48.30;26.60;;;;;;;-1.77;81.43;98666.99;84694;1328;22596;-73
2021/12/24 03:41:50;;;;;;;42.00;25.80;;;;;;;-1.76;81.36;98658.61;84674;1329;22666;-74
2021/12/24 03:44:02;;;;;;;46.40;26.30;;;;;;;-1.74;81.40;98654.46;84690;1330;23968;-72
2021/12/24 03:46:15;;;;;;;48.50;28.10;;;;;;;-1.73;81.42;98657.88;84710;1332;25489;-72
2021/12/24 03:48:37;;;;;;;47.80;27.40;;;;;;;-1.73;81.40;98664.03;84671;1329;26563;-73
2021/12/24 03:50:54;;;;;;;48.80;27.80;;;;;;;-1.76;81.28;98667.48;84649;1330;22714;-73
2021/12/24 03:54:55;;;;;;;47.10;27.50;;;;;;;-1.76;81.46;98671.08;84576;1335;22864;-73
2021/12/24 03:55:36;;;;;;;54.90;30.70;;;;;;;-1.75;81.42;98677.73;84705;1331;22879;-71
2021/12/24 03:57:48;;;;;;;44.20;24.40;;;;;;;-1.72;81.36;98671.88;84689;1332;23875;-72
2021/12/24 04:00:00;;;;;;;43.20;25.30;;;;;;;-1.69;81.41;98671.63;84662;1324;22689;-71
2021/12/24 04:02:09;;;;;;;42.40;26.60;;;;;;;-1.66;81.44;98663.39;84674;1330;22780;-72
2021/12/24 04:04:20;;;;;;;49.30;27.20;;;;;;;-1.63;81.55;98657.02;84698;1330;24288;-72
2021/12/24 04:06:32;;;;;;;47.80;26.60;;;;;;;-1.62;81.41;98649.14;84679;1330;22620;-72
2021/12/24 04:08:41;;;;;;;53.00;28.30;;;;;;;-1.61;81.47;98649.81;84686;1329;22622;-72
2021/12/24 04:10:50;;;;;;;45.90;27.90;;;;;;;-1.63;81.61;98642.30;84700;1331;22599;-71
2021/12/24 04:12:59;;;;;;;43.60;25.00;;;;;;;-1.63;81.50;98626.40;84682;1330;22621;-72
2021/12/24 04:15:09;;;;;;;45.80;25.80;;;;;;;-1.60;81.29;98623.13;84572;1330;22835;-71
2021/12/24 04:17:18;;;;;;;39.30;26.00;;;;;;;-1.63;81.34;98617.17;84577;1333;22607;-71
2021/12/24 04:24:51;;;;;;;41.60;25.30;;;;;;;-1.60;81.38;98610.80;84668;1329;23968;-71
2021/12/24 04:24:54;;;;;;;44.30;27.40;;;;;;;-1.58;81.46;98604.61;84670;1329;22600;-70
2021/12/24 04:27:03;;;;;;;46.60;26.20;;;;;;;-1.57;81.45;98600.34;84691;1330;22588;-70
2021/12/24 04:29:12;;;;;;;46.40;27.60;;;;;;;-1.57;81.27;98598.11;84684;1330;22607;-70
2021/12/24 04:31:27;;;;;;;46.00;27.70;;;;;;;-1.59;81.28;98601.54;84593;1330;22637;-71
2021/12/24 04:33:38;;;;;;;44.50;27.40;;;;;;;-1.58;81.56;98602.22;84685;1330;22816;-71
2021/12/24 04:35:57;;;;;;;46.20;26.20;;;;;;;-1.57;81.37;98609.73;84706;1330;22595;-72
2021/12/24 04:38:25;;;;;;;39.50;22.70;;;;;;;-1.57;81.22;98610.07;82568;1329;1003941;-71
2021/12/24 04:53:11;;;;;;;44.40;26.20;;;;;;;-1.48;81.56;98621.02;84570;1334;22598;-73
2021/12/24 05:02:52;;;;;;;45.60;24.90;;;;;;;-1.49;81.65;98614.39;84673;1331;22586;-72
2021/12/24 05:05:10;;;;;;;43.10;26.30;;;;;;;-1.46;81.90;98612.63;84691;1330;22877;-72
2021/12/24 05:07:48;;;;;;;41.80;27.10;;;;;;;-1.42;82.06;98607.07;84691;1330;22969;-72
2021/12/24 05:10:00;;;;;;;44.50;25.30;;;;;;;-1.36;82.04;98600.11;84643;1329;22891;-72
2021/12/24 05:12:14;;;;;;;49.10;25.90;;;;;;;-1.32;81.93;98596.10;84688;1330;25480;-72
2021/12/24 05:14:23;;;;;;;41.60;25.30;;;;;;;-1.28;82.07;98595.19;84696;1329;22666;-72
2021/12/24 05:16:43;;;;;;;42.80;25.90;;;;;;;-1.29;81.76;98596.05;84629;1333;22590;-73
2021/12/24 05:21:32;;;;;;;41.90;25.30;;;;;;;-1.27;81.71;98594.33;84676;1332;22577;-73
2021/12/24 05:21:37;;;;;;;37.50;23.50;;;;;;;-1.27;81.69;98593.29;84686;1330;22626;-73
2021/12/24 05:23:47;;;;;;;37.00;24.30;;;;;;;-1.23;81.89;98591.32;84669;1332;24245;-72
2021/12/24 05:25:54;;;;;;;;;;;;;;;-1.19;81.87;98586.79;84704;1330;22597;-73
2021/12/24 05:28:08;;;;;;;46.40;24.80;;;;;;;-1.16;82.20;98585.20;84631;1333;22611;-72
2021/12/24 05:30:17;;;;;;;41.20;24.60;;;;;;;-1.12;82.02;98581.88;84685;1332;22615;-72
2021/12/24 05:32:26;;;;;;;38.90;24.60;;;;;;;-1.12;81.89;98574.69;84692;1332;22739;-72
2021/12/24 05:34:39;;;;;;;44.10;25.60;;;;;;;-1.12;81.92;98575.04;84690;1332;22591;-72
2021/12/24 05:36:49;;;;;;;42.00;25.70;;;;;;;-1.14;81.67;98572.85;84673;1332;22656;-72
2021/12/24 05:39:03;;;;;;;44.00;25.90;;;;;;;-1.15;81.84;98575.61;84673;1328;22587;-71
2021/12/24 05:41:13;;;;;;;45.00;26.80;;;;;;;-1.17;82.08;98571.70;84676;1328;22633;-75
2021/12/24 05:43:23;;;;;;;40.90;22.90;;;;;;;-1.15;81.75;98569.44;84704;1325;22611;-74
2021/12/24 05:45:33;;;;;;;41.60;25.50;;;;;;;-1.13;82.02;98567.53;84685;1330;22651;-74
2021/12/24 05:47:43;;;;;;;41.00;26.40;;;;;;;-1.10;82.05;98569.48;84672;1329;22640;-73
2021/12/24 14:53:52;;;;;;;71.60;34.00;;;;;;;-0.28;88.08;98296.00;81917;1370;545384;-69
2021/12/24 14:56:04;;;;;;;61.60;32.30;;;;;;;-0.29;88.08;98299.47;84145;1339;22611;-74
2021/12/24 14:58:16;;;;;;;62.90;34.60;;;;;;;-0.25;88.23;98299.87;84181;1339;25280;-74
2021/12/24 15:00:30;;;;;;;63.70;35.00;;;;;;;-0.19;88.00;98299.70;84089;1340;25368;-70
2021/12/24 15:02:46;;;;;;;59.30;34.40;;;;;;;-0.11;88.37;98306.34;84687;1326;22594;-70
2021/12/24 15:05:00;;;;;;;51.30;30.20;;;;;;;-0.02;88.08;98308.12;84707;1329;24331;-73
2021/12/24 15:07:13;;;;;;;49.90;29.70;;;;;;;0.09;88.00;98313.65;84422;1327;416965;-73
2021/12/24 15:09:29;;;;;;;36.10;23.00;;;;;;;0.19;87.79;98304.10;84814;1321;22941;-72
2021/12/24 15:11:38;;;;;;;41.00;22.80;;;;;;;0.27;88.13;98293.41;84800;1325;22606;-72
2021/12/24 15:13:50;;;;;;;43.50;24.40;;;;;;;0.35;87.83;98276.19;84799;1327;25563;-72
2021/12/24 15:16:03;;;;;;;42.10;23.60;;;;;;;0.40;87.68;98274.64;84796;1326;26494;-71
2021/12/24 15:18:12;;;;;;;44.10;24.70;;;;;;;0.47;87.46;98280.80;84812;1328;22591;-70
2021/12/24 15:20:27;;;;;;;38.30;21.90;;;;;;;0.53;87.44;98290.90;84785;1326;22607;-77
2021/12/24 15:22:39;;;;;;;36.00;19.40;;;;;;;0.59;87.36;98283.84;84797;1325;25260;-69
2021/12/24 15:24:48;;;;;;;35.40;20.60;;;;;;;0.64;87.06;98287.46;84777;1329;25434;-70
2021/12/24 15:27:01;;;;;;;30.00;19.20;;;;;;;0.68;87.07;98294.21;84768;1327;22587;-70
2021/12/24 15:29:12;;;;;;;38.40;20.90;;;;;;;0.72;86.96;98300.41;84807;1323;25536;-70
2021/12/24 15:31:22;;;;;;;32.20;21.40;;;;;;;0.75;86.83;98298.46;84823;1327;22582;-68
2021/12/24 15:33:31;;;;;;;35.70;21.80;;;;;;;0.74;86.86;98285.28;82664;1329;1005398;-70
2021/12/24 15:35:44;;;;;;;38.00;22.00;;;;;;;0.74;86.52;98281.50;84810;1328;22576;-70
2021/12/24 15:37:56;;;;;;;33.20;20.00;;;;;;;0.76;86.46;98280.05;84789;1326;23924;-70
2021/12/24 15:40:09;;;;;;;30.80;19.90;;;;;;;0.77;86.55;98271.42;84829;1327;24142;-71
2021/12/24 15:42:19;;;;;;;29.50;18.60;;;;;;;0.77;86.49;98276.59;84832;1328;24232;-70
2021/12/24 15:44:28;;;;;;;33.50;20.50;;;;;;;0.80;86.44;98290.40;84809;1325;25480;-70
2021/12/24 15:46:37;;;;;;;28.70;19.40;;;;;;;0.81;86.43;98298.44;84816;1326;23908;-69
2021/12/24 15:48:50;;;;;;;32.00;19.50;;;;;;;0.84;86.40;98304.70;84792;1328;24272;-70
2021/12/24 15:51:01;;;;;;;31.80;19.60;;;;;;;0.87;86.25;98302.02;84774;1326;22600;-69
2021/12/24 15:53:14;;;;;;;31.50;19.90;;;;;;;0.89;86.42;98308.31;84790;1325;23892;-69
2021/12/24 15:55:24;;;;;;;38.10;22.60;;;;;;;0.92;86.31;98288.45;84797;1323;22607;-68
2021/12/24 15:57:36;;;;;;;103.50;39.20;;;;;;;0.95;86.12;98274.46;84772;1322;22600;-68
2021/12/24 15:59:46;;;;;;;244.90;94.30;;;;;;;0.95;85.71;98281.85;84770;1325;22685;-70
2021/12/24 16:01:59;;;;;;;139.80;57.80;;;;;;;0.95;85.96;98283.55;84767;1327;23895;-69
2021/12/24 16:04:09;;;;;;;70.20;33.80;;;;;;;0.95;85.83;98283.92;84797;1327;26544;-69
2021/12/24 16:06:20;;;;;;;;;;;;;;;0.94;85.65;98286.70;84774;1328;22579;-73
2021/12/24 16:08:32;;;;;;;49.30;24.20;;;;;;;0.92;85.70;98283.48;84797;1327;22613;-71
2021/12/24 16:10:41;;;;;;;37.60;20.60;;;;;;;0.92;85.65;98284.50;84788;1326;23836;-71
2021/12/24 16:12:50;;;;;;;;;;;;;;;0.91;85.74;98295.17;84795;1327;24185;-70
2021/12/24 16:15:00;;;;;;;72.80;33.30;;;;;;;0.90;85.66;98305.70;84805;1326;22600;-70
2021/12/24 16:17:13;;;;;;;75.80;33.20;;;;;;;0.93;85.78;98311.59;84812;1327;23127;-70
2021/12/24 16:19:23;;;;;;;44.50;26.00;;;;;;;0.97;85.68;98304.62;84790;1328;22727;-70
2021/12/24 16:21:33;;;;;;;41.30;23.80;;;;;;;0.97;85.80;98298.44;84809;1327;24285;-69
2021/12/24 16:23:43;;;;;;;41.70;24.60;;;;;;;0.97;85.77;98297.71;84797;1318;24389;-70
2021/12/24 16:25:50;;;;;;;;;;;;;;;0.99;85.66;98298.36;84746;1328;22567;-70
2021/12/24 16:28:00;;;;;;;28.10;18.30;;;;;;;0.95;85.71;98300.05;84813;1325;22643;-70
2021/12/24 16:30:15;;;;;;;28.40;19.00;;;;;;;0.94;85.47;98292.53;84795;1325;22617;-70
2021/12/24 16:32:30;;;;;;;27.80;17.50;;;;;;;0.90;85.25;98290.75;84812;1322;22934;-70
2021/12/24 16:34:44;;;;;;;23.90;15.50;;;;;;;0.87;85.27;98287.41;84796;1327;22689;-66
2021/12/24 16:36:53;;;;;;;21.10;15.90;;;;;;;0.86;85.16;98283.17;84768;1327;22595;-67
2021/12/24 16:39:05;;;;;;;22.40;14.50;;;;;;;0.86;85.21;98293.30;84806;1326;22626;-74
2021/12/24 16:41:17;;;;;;;23.10;16.10;;;;;;;0.85;85.28;98296.93;84821;1325;23972;-68
2021/12/24 16:43:29;;;;;;;24.10;15.50;;;;;;;0.85;85.19;98299.86;84825;1326;25462;-68
2021/12/24 16:45:39;;;;;;;26.70;16.50;;;;;;;0.86;85.20;98302.05;84809;1326;22600;-67
2021/12/24 16:47:49;;;;;;;22.90;15.30;;;;;;;0.85;85.30;98303.45;84806;1326;22597;-68
2021/12/24 16:49:59;;;;;;;26.80;16.80;;;;;;;0.84;85.33;98303.68;84773;1326;22674;-67
2021/12/24 16:52:10;;;;;;;25.80;16.10;;;;;;;0.83;85.35;98296.32;84744;1327;22597;-67
2021/12/24 16:54:19;;;;;;;22.40;15.00;;;;;;;0.82;85.36;98291.52;84777;1328;22635;-71
2021/12/24 16:56:34;;;;;;;23.80;16.30;;;;;;;0.84;85.20;98294.90;84847;1326;22587;-72
2021/12/24 16:58:44;;;;;;;24.30;15.80;;;;;;;0.84;85.28;98300.40;84782;1327;25395;-72
2021/12/24 17:00:58;;;;;;;19.10;14.40;;;;;;;0.85;85.00;98299.19;84774;1326;26001;-70
2021/12/24 17:03:07;;;;;;;23.90;16.60;;;;;;;0.86;85.19;98295.00;84796;1325;22592;-72
2021/12/24 17:05:18;;;;;;;27.90;16.40;;;;;;;0.88;85.24;98292.37;84814;1327;25269;-71
2021/12/24 17:07:27;;;;;;;23.30;15.80;;;;;;;0.87;85.14;98288.45;84808;1326;22792;-71
2021/12/24 17:09:36;;;;;;;22.90;14.70;;;;;;;0.85;85.04;98295.39;84793;1322;22602;-73
2021/12/24 17:11:49;;;;;;;23.50;16.00;;;;;;;0.82;85.04;98295.14;84784;1327;22594;-70
2021/12/24 17:13:58;;;;;;;22.50;15.60;;;;;;;0.79;85.08;98298.86;84789;1325;22622;-70
2021/12/24 17:16:10;;;;;;;23.00;15.00;;;;;;;0.78;85.33;98302.80;84824;1329;22704;-70
2021/12/24 17:18:20;;;;;;;24.60;14.60;;;;;;;0.79;85.26;98303.98;84788;1326;25301;-71
2021/12/24 17:20:32;;;;;;;;;;;;;;;0.82;85.40;98303.73;84802;1326;23966;-71
2021/12/24 17:22:45;;;;;;;21.50;13.40;;;;;;;0.82;85.40;98300.64;84792;1327;23812;-71
2021/12/24 17:24:58;;;;;;;19.50;13.70;;;;;;;0.85;85.25;98302.77;84787;1322;23476;-72
2021/12/24 17:27:09;;;;;;;18.20;13.00;;;;;;;0.87;85.17;98302.86;84771;1326;22793;-71
2021/12/24 17:29:21;;;;;;;18.70;12.50;;;;;;;0.87;85.14;98305.79;84787;1327;23899;-71
2021/12/24 17:31:32;;;;;;;22.80;14.70;;;;;;;0.89;85.40;98306.77;84722;1327;25269;-70
2021/12/24 17:33:45;;;;;;;20.30;13.30;;;;;;;0.89;85.32;98307.61;84772;1325;22670;-70
2021/12/24 17:35:54;;;;;;;22.00;14.70;;;;;;;0.91;85.38;98308.41;84812;1325;23902;-72
2021/12/24 17:38:03;;;;;;;16.90;11.50;;;;;;;0.92;85.42;98307.52;84797;1327;22606;-71
2021/12/24 17:40:16;;;;;;;14.90;12.00;;;;;;;0.91;85.08;98307.91;84811;1322;22951;-71
2021/12/24 17:42:28;;;;;;;20.40;12.50;;;;;;;0.88;85.01;98307.14;84826;1326;22614;-71
2021/12/24 17:44:38;;;;;;;18.00;11.90;;;;;;;0.89;85.27;98304.02;84773;1326;24232;-71
2021/12/24 17:46:48;;;;;;;14.90;11.50;;;;;;;0.92;85.37;98308.38;84796;1327;23283;-72
2021/12/24 17:49:02;;;;;;;16.90;12.10;;;;;;;0.93;84.98;98311.44;84814;1327;23070;-72
2021/12/24 17:51:12;;;;;;;16.90;12.10;;;;;;;0.94;85.29;98314.16;84815;1319;22763;-71
2021/12/24 17:53:20;;;;;;;17.90;13.10;;;;;;;0.96;85.25;98315.45;84788;1327;22590;-71
2021/12/24 17:55:36;;;;;;;14.50;12.50;;;;;;;0.94;85.08;98318.78;84793;1326;22698;-71
2021/12/24 17:57:46;;;;;;;18.00;11.80;;;;;;;0.91;85.03;98317.52;84783;1329;22589;-72
2021/12/24 17:59:55;;;;;;;14.80;11.50;;;;;;;0.87;84.88;98318.64;84785;1328;22632;-71
2021/12/24 18:02:07;;;;;;;13.30;10.80;;;;;;;0.84;84.87;98319.61;84774;1329;22874;-72
2021/12/24 18:04:16;;;;;;;15.50;11.70;;;;;;;0.81;84.70;98324.35;84785;1322;22752;-73
2021/12/24 18:06:25;;;;;;;17.10;11.40;;;;;;;0.80;85.10;98325.26;84804;1326;25427;-71
2021/12/24 18:08:34;;;;;;;22.10;12.70;;;;;;;0.82;85.04;98329.83;84798;1329;22597;-72
2021/12/24 18:10:43;;;;;;;15.30;12.00;;;;;;;0.78;84.80;98327.71;84843;1329;24264;-71
2021/12/24 18:12:57;;;;;;;20.60;12.30;;;;;;;0.76;84.97;98333.61;84795;1323;22720;-71
2021/12/24 18:15:06;;;;;;;20.00;11.90;;;;;;;0.71;84.68;98336.67;84803;1326;22596;-71
2021/12/24 18:17:18;;;;;;;14.10;10.00;;;;;;;0.68;84.76;98338.30;84779;1327;22581;-70
2021/12/24 18:19:27;;;;;;;14.10;11.40;;;;;;;0.68;84.90;98340.72;84798;1328;22655;-72
2021/12/24 18:21:39;;;;;;;16.40;11.00;;;;;;;0.68;85.03;98341.06;84810;1325;22595;-70
2021/12/24 18:23:48;;;;;;;16.20;12.60;;;;;;;0.67;85.24;98342.61;84778;1326;22664;-72
2021/12/24 18:26:00;;;;;;;16.20;13.00;;;;;;;0.69;85.27;98351.33;84793;1325;22598;-71
2021/12/24 18:28:10;;;;;;;18.10;12.50;;;;;;;0.67;85.04;98348.30;84757;1329;22583;-70
2021/12/24 18:30:19;;;;;;;18.70;12.60;;;;;;;0.67;85.26;98350.02;84789;1329;22598;-72
2021/12/24 18:32:33;;;;;;;21.30;12.80;;;;;;;0.66;85.08;98350.89;84771;1322;24333;-71
2021/12/24 18:34:42;;;;;;;25.70;15.80;;;;;;;0.65;85.16;98355.05;84803;1327;23052;-71
2021/12/24 18:36:51;;;;;;;19.80;13.20;;;;;;;0.68;85.14;98362.17;84798;1323;22607;-72
2021/12/24 18:39:03;;;;;;;15.10;10.60;;;;;;;0.67;85.13;98368.37;84783;1326;22596;-72
2021/12/24 18:41:17;;;;;;;14.30;10.90;;;;;;;0.67;85.05;98371.98;84803;1327;22608;-72
2021/12/24 18:43:32;;;;;;;15.20;11.00;;;;;;;0.68;85.16;98375.19;84792;1327;22596;-71
2021/12/24 18:45:54;;;;;;;15.80;11.40;;;;;;;0.72;85.45;98373.54;84810;1329;22606;-74
2021/12/24 18:48:04;;;;;;;16.40;12.60;;;;;;;0.72;85.26;98371.98;84781;1327;23815;-72
2021/12/24 18:50:19;;;;;;;19.00;11.70;;;;;;;0.72;85.31;98374.05;84900;1321;22613;-70
2021/12/24 18:52:29;;;;;;;17.00;11.80;;;;;;;0.73;85.14;98379.67;84743;1327;22603;-71
2021/12/24 18:54:41;;;;;;;17.40;11.50;;;;;;;0.74;85.19;98376.75;84721;1331;22694;-71
2021/12/24 18:56:51;;;;;;;15.80;12.00;;;;;;;0.76;85.18;98373.57;84722;1327;24243;-71
2021/12/24 18:59:00;;;;;;;18.20;12.70;;;;;;;0.76;85.33;98379.07;84727;1327;22614;-70
2021/12/24 19:01:10;;;;;;;19.20;13.00;;;;;;;0.80;85.56;98386.17;84709;1328;22985;-72
2021/12/24 19:03:20;;;;;;;14.50;11.90;;;;;;;0.81;85.28;98389.40;84737;1330;22616;-72
2021/12/24 19:05:37;;;;;;;20.50;13.50;;;;;;;0.79;85.22;98391.69;84717;1330;22662;-73
2021/12/24 19:07:48;;;;;;;16.30;12.40;;;;;;;0.79;85.13;98395.64;84741;1327;25301;-70
2021/12/24 19:10:01;;;;;;;30.00;16.50;;;;;;;0.78;84.89;98396.86;84722;1324;22606;-70
2021/12/24 19:12:23;;;;;;;36.80;19.20;;;;;;;0.76;84.89;98392.80;84722;1328;22664;-71
2021/12/24 19:14:41;;;;;;;34.40;19.70;;;;;;;0.74;84.79;98396.82;84630;1331;22609;-71
2021/12/24 19:16:54;;;;;;;30.90;18.80;;;;;;;0.75;85.16;98403.15;84706;1328;24235;-73
2021/12/24 19:19:06;;;;;;;22.00;15.20;;;;;;;0.81;85.25;98403.65;84715;1328;26448;-75
2021/12/24 19:21:21;;;;;;;19.50;14.20;;;;;;;0.86;85.31;98404.52;84676;1331;22660;-74
2021/12/24 19:23:30;;;;;;;20.00;15.00;;;;;;;0.85;84.99;98407.48;84718;1327;22615;-71
2021/12/24 19:25:39;;;;;;;25.10;17.40;;;;;;;0.85;85.09;98411.60;84715;1327;25348;-73
2021/12/24 19:27:49;;;;;;;22.00;16.60;;;;;;;0.79;84.82;98417.78;84674;1329;22562;-74
2021/12/24 19:29:58;;;;;;;24.00;16.40;;;;;;;0.74;84.93;98417.75;84780;1327;22599;-70
2021/12/24 19:32:11;;;;;;;24.00;16.90;;;;;;;0.70;84.50;98418.20;84721;1327;25404;-70
2021/12/24 19:34:23;;;;;;;24.50;17.60;;;;;;;0.68;84.90;98422.55;84700;1329;23044;-72
2021/12/24 19:36:34;;;;;;;19.70;15.20;;;;;;;0.66;84.61;98425.70;84707;1329;23854;-72
2021/12/24 19:38:43;;;;;;;22.20;15.10;;;;;;;0.64;84.73;98427.84;84733;1327;22593;-72
2021/12/24 19:40:52;;;;;;;28.40;19.00;;;;;;;0.62;84.83;98422.58;84699;1328;26466;-71
2021/12/24 19:43:07;;;;;;;34.10;23.80;;;;;;;0.59;84.66;98431.77;84730;1330;22648;-72
2021/12/24 19:45:17;;;;;;;28.00;20.40;;;;;;;0.56;84.87;98438.19;84757;1329;25464;-74
2021/12/24 19:47:37;;;;;;;27.90;20.20;;;;;;;0.55;84.83;98443.55;84739;1327;22626;-87
2021/12/24 19:49:48;;;;;;;31.50;18.40;;;;;;;0.52;84.85;98455.77;84742;1330;22857;-72
2021/12/24 19:52:01;;;;;;;32.90;21.50;;;;;;;0.53;84.84;98466.58;84682;1331;24307;-71
2021/12/24 19:54:14;;;;;;;27.50;19.80;;;;;;;0.53;84.91;98469.84;84651;1331;22775;-72
2021/12/24 19:56:28;;;;;;;24.40;17.50;;;;;;;0.54;84.95;98471.52;84705;1328;22590;-75
2021/12/24 19:58:41;;;;;;;28.20;19.60;;;;;;;0.56;85.14;98476.62;84690;1328;22639;-76
2021/12/24 20:00:50;;;;;;;29.90;19.70;;;;;;;0.56;85.08;98476.96;84012;1327;1002956;-73
2021/12/24 20:03:00;;;;;;;26.40;18.20;;;;;;;0.54;85.00;98483.38;84721;1327;22584;-73
2021/12/24 20:05:22;;;;;;;30.20;20.60;;;;;;;0.52;85.14;98490.61;84767;1330;25357;-79
2021/12/24 20:07:37;;;;;;;26.50;17.20;;;;;;;0.50;85.12;98499.08;84709;1330;22592;-77
2021/12/24 20:09:48;;;;;;;26.90;18.00;;;;;;;0.48;84.82;98498.96;84733;1329;22592;-74
2021/12/24 20:12:06;;;;;;;31.70;15.90;;;;;;;0.46;84.96;98509.33;84754;1329;22764;-74
2021/12/24 20:14:19;;;;;;;22.30;14.60;;;;;;;0.43;84.77;98514.04;84730;1328;26510;-72
2021/12/24 20:16:30;;;;;;;24.60;15.10;;;;;;;0.42;84.79;98511.99;84716;1327;22724;-72
2021/12/24 20:18:42;;;;;;;21.30;14.90;;;;;;;0.43;84.80;98514.52;84739;1327;23961;-71